sensor_id;sensor_type;location;lat;lon;timestamp;pressure;altitude;pressure_sealevel;temperature;humidity
46291;BME280;32023;44.444;26.006;2023-02-10T00:01:25;102816.28;;;-3.69;56.15
46291;BME280;32023;44.444;26.006;2023-02-10T00:03:51;102825.34;;;-3.70;55.98
46291;BME280;32023;44.444;26.006;2023-02-10T00:06:18;102819.63;;;-3.78;55.86
46291;BME280;32023;44.444;26.006;2023-02-10T00:08:58;102814.56;;;-3.83;55.85
46291;BME280;32023;44.444;26.006;2023-02-10T00:11:25;102817.56;;;-3.88;56.49
46291;BME280;32023;44.444;26.006;2023-02-10T00:14:12;102814.13;;;-3.90;56.83
46291;BME280;32023;44.444;26.006;2023-02-10T00:16:38;102808.19;;;-3.95;57.23
46291;BME280;32023;44.444;26.006;2023-02-10T00:19:06;102809.16;;;-3.96;57.19
46291;BME280;32023;44.444;26.006;2023-02-10T00:21:32;102808.63;;;-4.01;57.46
46291;BME280;32023;44.444;26.006;2023-02-10T00:23:58;102803.13;;;-4.12;58.34
46291;BME280;32023;44.444;26.006;2023-02-10T00:26:25;102803.75;;;-4.21;59.07
46291;BME280;32023;44.444;26.006;2023-02-10T00:28:51;102797.81;;;-4.26;59.78
46291;BME280;32023;44.444;26.006;2023-02-10T00:31:18;102804.34;;;-4.30;60.19
46291;BME280;32023;44.444;26.006;2023-02-10T00:36:19;102797.19;;;-4.56;62.68
46291;BME280;32023;44.444;26.006;2023-02-10T00:38:47;102788.38;;;-4.58;63.06
46291;BME280;32023;44.444;26.006;2023-02-10T00:43:58;102788.75;;;-4.64;62.84
46291;BME280;32023;44.444;26.006;2023-02-10T00:46:27;102787.28;;;-4.68;62.31
46291;BME280;32023;44.444;26.006;2023-02-10T00:48:53;102784.03;;;-4.73;62.04
46291;BME280;32023;44.444;26.006;2023-02-10T00:51:35;102782.72;;;-4.80;61.27
46291;BME280;32023;44.444;26.006;2023-02-10T00:54:02;102774.00;;;-4.84;60.93
46291;BME280;32023;44.444;26.006;2023-02-10T00:56:28;102782.72;;;-4.80;60.92
46291;BME280;32023;44.444;26.006;2023-02-10T00:58:54;102784.81;;;-4.86;60.84
46291;BME280;32023;44.444;26.006;2023-02-10T01:01:20;102777.94;;;-4.90;60.91
46291;BME280;32023;44.444;26.006;2023-02-10T01:03:46;102771.69;;;-4.90;60.83
46291;BME280;32023;44.444;26.006;2023-02-10T01:06:19;102771.59;;;-4.89;60.70
46291;BME280;32023;44.444;26.006;2023-02-10T01:08:48;102787.31;;;-4.82;60.58
46291;BME280;32023;44.444;26.006;2023-02-10T01:11:15;102773.66;;;-4.79;60.80
46291;BME280;32023;44.444;26.006;2023-02-10T01:13:42;102770.22;;;-4.81;60.67
46291;BME280;32023;44.444;26.006;2023-02-10T01:16:10;102773.66;;;-4.79;60.47
46291;BME280;32023;44.444;26.006;2023-02-10T01:18:38;102776.84;;;-4.87;60.95
46291;BME280;32023;44.444;26.006;2023-02-10T01:21:10;102772.75;;;-4.93;61.00
46291;BME280;32023;44.444;26.006;2023-02-10T01:23:37;102776.81;;;-5.00;61.66
46291;BME280;32023;44.444;26.006;2023-02-10T01:26:04;102777.78;;;-5.01;61.71
46291;BME280;32023;44.444;26.006;2023-02-10T01:28:30;102771.75;;;-5.04;61.86
46291;BME280;32023;44.444;26.006;2023-02-10T01:30:56;102768.97;;;-5.03;61.73
46291;BME280;32023;44.444;26.006;2023-02-10T01:33:33;102762.81;;;-5.05;61.91
46291;BME280;32023;44.444;26.006;2023-02-10T01:36:09;102763.69;;;-5.04;61.57
46291;BME280;32023;44.444;26.006;2023-02-10T01:38:36;102761.09;;;-5.06;61.79
46291;BME280;32023;44.444;26.006;2023-02-10T01:43:55;102718.41;;;-5.37;61.61
46291;BME280;32023;44.444;26.006;2023-02-10T01:46:21;102759.41;;;-5.21;62.85
46291;BME280;32023;44.444;26.006;2023-02-10T01:48:54;102761.34;;;-5.23;63.12
46291;BME280;32023;44.444;26.006;2023-02-10T01:51:22;102747.16;;;-5.25;63.30
46291;BME280;32023;44.444;26.006;2023-02-10T01:53:51;102745.00;;;-5.20;63.40
46291;BME280;32023;44.444;26.006;2023-02-10T01:56:18;102739.44;;;-5.17;63.43
46291;BME280;32023;44.444;26.006;2023-02-10T01:58:44;102739.06;;;-5.11;63.23
46291;BME280;32023;44.444;26.006;2023-02-10T02:01:11;102734.22;;;-5.06;63.34
46291;BME280;32023;44.444;26.006;2023-02-10T02:03:37;102732.19;;;-5.02;63.18
46291;BME280;32023;44.444;26.006;2023-02-10T02:06:20;102725.00;;;-5.02;63.30
46291;BME280;32023;44.444;26.006;2023-02-10T02:08:48;102725.41;;;-5.08;63.42
46291;BME280;32023;44.444;26.006;2023-02-10T02:34:47;102702.19;;;-5.09;64.62
46291;BME280;32023;44.444;26.006;2023-02-10T02:37:15;102703.94;;;-5.08;64.63
46291;BME280;32023;44.444;26.006;2023-02-10T02:39:43;102695.09;;;-5.10;64.69
46291;BME280;32023;44.444;26.006;2023-02-10T02:44:46;102701.09;;;-5.19;64.66
46291;BME280;32023;44.444;26.006;2023-02-10T02:47:16;102695.72;;;-5.19;64.58
46291;BME280;32023;44.444;26.006;2023-02-10T02:53:13;102707.06;;;-5.28;64.41
46291;BME280;32023;44.444;26.006;2023-02-10T02:57:48;102699.91;;;-5.42;64.12
46291;BME280;32023;44.444;26.006;2023-02-10T03:00:20;102694.63;;;-5.43;64.00
46291;BME280;32023;44.444;26.006;2023-02-10T03:02:49;102686.78;;;-5.46;64.12
46291;BME280;32023;44.444;26.006;2023-02-10T03:05:19;102694.97;;;-5.48;63.96
46291;BME280;32023;44.444;26.006;2023-02-10T03:07:47;102695.78;;;-5.47;64.06
46291;BME280;32023;44.444;26.006;2023-02-10T03:10:13;102696.78;;;-5.48;64.21
46291;BME280;32023;44.444;26.006;2023-02-10T03:12:39;102689.09;;;-5.54;64.23
46291;BME280;32023;44.444;26.006;2023-02-10T03:15:14;102697.28;;;-5.56;64.19
46291;BME280;32023;44.444;26.006;2023-02-10T03:17:40;102706.34;;;-5.58;63.99
46291;BME280;32023;44.444;26.006;2023-02-10T03:20:09;102698.41;;;-5.60;64.25
46291;BME280;32023;44.444;26.006;2023-02-10T03:22:45;102695.38;;;-5.68;64.32
46291;BME280;32023;44.444;26.006;2023-02-10T03:25:11;102692.69;;;-5.68;64.31
46291;BME280;32023;44.444;26.006;2023-02-10T03:27:40;102696.59;;;-5.73;64.63
46291;BME280;32023;44.444;26.006;2023-02-10T03:30:06;102684.34;;;-5.77;64.82
46291;BME280;32023;44.444;26.006;2023-02-10T03:32:32;102692.59;;;-5.80;65.07
46291;BME280;32023;44.444;26.006;2023-02-10T03:35:04;102693.88;;;-5.86;65.12
46291;BME280;32023;44.444;26.006;2023-02-10T03:37:33;102691.38;;;-5.89;65.25
46291;BME280;32023;44.444;26.006;2023-02-10T03:39:59;102686.13;;;-5.91;65.98
46291;BME280;32023;44.444;26.006;2023-02-10T03:42:26;102677.13;;;-5.90;65.37
46291;BME280;32023;44.444;26.006;2023-02-10T03:44:52;102684.97;;;-5.87;65.38
46291;BME280;32023;44.444;26.006;2023-02-10T03:47:18;102675.41;;;-5.91;66.26
46291;BME280;32023;44.444;26.006;2023-02-10T03:49:44;102680.75;;;-5.91;65.97
46291;BME280;32023;44.444;26.006;2023-02-10T03:52:11;102678.28;;;-5.94;66.10
46291;BME280;32023;44.444;26.006;2023-02-10T03:54:54;102677.50;;;-5.96;66.59
46291;BME280;32023;44.444;26.006;2023-02-10T03:57:22;102676.53;;;-5.95;66.71
46291;BME280;32023;44.444;26.006;2023-02-10T03:59:48;102673.47;;;-6.03;67.16
46291;BME280;32023;44.444;26.006;2023-02-10T04:02:15;102669.25;;;-6.07;67.14
46291;BME280;32023;44.444;26.006;2023-02-10T04:04:42;102678.56;;;-6.12;67.59
46291;BME280;32023;44.444;26.006;2023-02-10T04:07:15;102677.91;;;-6.16;67.63
46291;BME280;32023;44.444;26.006;2023-02-10T04:09:41;102673.69;;;-6.20;67.67
46291;BME280;32023;44.444;26.006;2023-02-10T04:12:07;102681.63;;;-6.18;68.04
46291;BME280;32023;44.444;26.006;2023-02-10T04:14:34;102673.50;;;-6.17;67.87
46291;BME280;32023;44.444;26.006;2023-02-10T04:17:00;102667.47;;;-6.20;67.76
46291;BME280;32023;44.444;26.006;2023-02-10T04:19:29;102671.97;;;-6.21;68.44
46291;BME280;32023;44.444;26.006;2023-02-10T04:21:55;102655.78;;;-6.19;68.17
46291;BME280;32023;44.444;26.006;2023-02-10T04:24:21;102666.50;;;-6.19;68.69
46291;BME280;32023;44.444;26.006;2023-02-10T04:29:30;102656.25;;;-6.27;69.26
46291;BME280;32023;44.444;26.006;2023-02-10T04:31:56;102665.25;;;-6.28;68.84
46291;BME280;32023;44.444;26.006;2023-02-10T04:34:22;102661.63;;;-6.27;68.98
46291;BME280;32023;44.444;26.006;2023-02-10T04:36:49;102657.97;;;-6.26;68.78
46291;BME280;32023;44.444;26.006;2023-02-10T04:39:15;102649.84;;;-6.24;69.05
46291;BME280;32023;44.444;26.006;2023-02-10T04:44:32;102650.19;;;-6.30;69.59
46291;BME280;32023;44.444;26.006;2023-02-10T04:46:58;102652.22;;;-6.34;69.55
46291;BME280;32023;44.444;26.006;2023-02-10T04:49:25;102652.13;;;-6.32;69.83
46291;BME280;32023;44.444;26.006;2023-02-10T04:51:51;102652.59;;;-6.26;69.99
46291;BME280;32023;44.444;26.006;2023-02-10T04:54:17;102656.81;;;-6.22;70.46
46291;BME280;32023;44.444;26.006;2023-02-10T04:56:43;102657.59;;;-6.20;70.30
46291;BME280;32023;44.444;26.006;2023-02-10T04:59:10;102658.84;;;-6.25;70.73
46291;BME280;32023;44.444;26.006;2023-02-10T05:01:36;102648.22;;;-6.27;70.79
46291;BME280;32023;44.444;26.006;2023-02-10T05:04:12;102659.31;;;-6.19;71.00
46291;BME280;32023;44.444;26.006;2023-02-10T05:06:41;102656.34;;;-6.14;70.57
46291;BME280;32023;44.444;26.006;2023-02-10T05:09:07;102658.94;;;-6.13;70.99
46291;BME280;32023;44.444;26.006;2023-02-10T05:11:44;102657.59;;;-6.20;70.60
46291;BME280;32023;44.444;26.006;2023-02-10T05:14:10;102651.75;;;-6.26;70.96
46291;BME280;32023;44.444;26.006;2023-02-10T05:16:39;102652.22;;;-6.34;71.20
46291;BME280;32023;44.444;26.006;2023-02-10T05:19:10;102664.28;;;-6.41;71.43
46291;BME280;32023;44.444;26.006;2023-02-10T05:21:39;102665.41;;;-6.45;72.13
46291;BME280;32023;44.444;26.006;2023-02-10T05:24:05;102665.72;;;-6.50;71.83
46291;BME280;32023;44.444;26.006;2023-02-10T05:26:39;102670.38;;;-6.53;72.11
46291;BME280;32023;44.444;26.006;2023-02-10T05:29:05;102661.38;;;-6.52;72.47
46291;BME280;32023;44.444;26.006;2023-02-10T05:31:31;102672.28;;;-6.55;72.28
46291;BME280;32023;44.444;26.006;2023-02-10T05:33:58;102670.38;;;-6.53;72.88
46291;BME280;32023;44.444;26.006;2023-02-10T05:36:28;102678.41;;;-6.53;72.93
46291;BME280;32023;44.444;26.006;2023-02-10T05:39:37;102679.78;;;-6.46;72.70
46291;BME280;32023;44.444;26.006;2023-02-10T05:41:53;102688.03;;;-6.35;73.00
46291;BME280;32023;44.444;26.006;2023-02-10T05:44:21;102684.69;;;-6.24;72.83
46291;BME280;32023;44.444;26.006;2023-02-10T05:46:52;102686.41;;;-6.09;73.03
46291;BME280;32023;44.444;26.006;2023-02-10T05:49:25;102688.22;;;-5.96;72.68
46291;BME280;32023;44.444;26.006;2023-02-10T05:52:12;102684.81;;;-5.85;72.50
46291;BME280;32023;44.444;26.006;2023-02-10T05:55:01;102683.03;;;-5.70;72.54
46291;BME280;32023;44.444;26.006;2023-02-10T05:57:27;102680.59;;;-5.61;71.90
46291;BME280;32023;44.444;26.006;2023-02-10T06:00:09;102688.91;;;-5.51;71.95
46291;BME280;32023;44.444;26.006;2023-02-10T06:02:35;102691.78;;;-5.40;71.64
46291;BME280;32023;44.444;26.006;2023-02-10T06:05:03;102688.38;;;-5.29;71.24
46291;BME280;32023;44.444;26.006;2023-02-10T06:07:30;102687.88;;;-5.22;70.82
46291;BME280;32023;44.444;26.006;2023-02-10T06:09:56;102684.19;;;-5.07;70.83
46291;BME280;32023;44.444;26.006;2023-02-10T06:12:22;102687.53;;;-4.91;70.35
46291;BME280;32023;44.444;26.006;2023-02-10T06:14:48;102690.53;;;-4.68;69.80
46291;BME280;32023;44.444;26.006;2023-02-10T06:17:15;102687.97;;;-4.57;69.05
46291;BME280;32023;44.444;26.006;2023-02-10T06:19:41;102686.25;;;-4.33;69.29
46291;BME280;32023;44.444;26.006;2023-02-10T06:22:07;102685.63;;;-4.24;68.09
46291;BME280;32023;44.444;26.006;2023-02-10T06:24:35;102693.03;;;-4.15;67.79
46291;BME280;32023;44.444;26.006;2023-02-10T06:27:01;102693.69;;;-3.99;67.52
46291;BME280;32023;44.444;26.006;2023-02-10T06:29:28;102693.69;;;-3.86;67.15
46291;BME280;32023;44.444;26.006;2023-02-10T06:31:54;102695.59;;;-3.75;66.59
46291;BME280;32023;44.444;26.006;2023-02-10T06:34:21;102690.06;;;-3.61;66.46
46291;BME280;32023;44.444;26.006;2023-02-10T06:36:52;102695.53;;;-3.50;65.82
46291;BME280;32023;44.444;26.006;2023-02-10T06:39:18;102699.28;;;-3.40;65.47
46291;BME280;32023;44.444;26.006;2023-02-10T06:41:44;102697.63;;;-3.30;65.02
46291;BME280;32023;44.444;26.006;2023-02-10T06:44:11;102685.72;;;-3.15;64.81
46291;BME280;32023;44.444;26.006;2023-02-10T06:46:37;102678.22;;;-2.99;63.94
46291;BME280;32023;44.444;26.006;2023-02-10T06:49:05;102677.69;;;-2.80;63.33
46291;BME280;32023;44.444;26.006;2023-02-10T06:51:37;102677.66;;;-2.45;62.74
46291;BME280;32023;44.444;26.006;2023-02-10T06:54:11;102677.56;;;-2.32;61.68
46291;BME280;32023;44.444;26.006;2023-02-10T06:56:48;102678.19;;;-2.29;60.93
46291;BME280;32023;44.444;26.006;2023-02-10T07:02:32;102688.75;;;-2.04;60.25
46291;BME280;32023;44.444;26.006;2023-02-10T07:05:00;102682.66;;;-1.72;60.38
46291;BME280;32023;44.444;26.006;2023-02-10T07:07:29;102673.63;;;-1.39;59.54
46291;BME280;32023;44.444;26.006;2023-02-10T07:10:03;102679.63;;;-1.14;58.09
46291;BME280;32023;44.444;26.006;2023-02-10T07:12:31;102674.63;;;-0.98;58.21
46291;BME280;32023;44.444;26.006;2023-02-10T07:15:01;102680.69;;;-0.73;56.93
46291;BME280;32023;44.444;26.006;2023-02-10T07:17:27;102683.94;;;-0.59;56.60
46291;BME280;32023;44.444;26.006;2023-02-10T07:19:58;102685.41;;;-0.34;55.83
46291;BME280;32023;44.444;26.006;2023-02-10T07:22:34;102681.63;;;-0.22;55.62
46291;BME280;32023;44.444;26.006;2023-02-10T07:25:00;102688.50;;;0.03;55.34
46291;BME280;32023;44.444;26.006;2023-02-10T07:27:26;102692.06;;;0.34;54.42
46291;BME280;32023;44.444;26.006;2023-02-10T07:29:52;102687.53;;;0.44;53.99
46291;BME280;32023;44.444;26.006;2023-02-10T07:32:19;102679.53;;;0.82;53.77
46291;BME280;32023;44.444;26.006;2023-02-10T07:34:50;102681.66;;;0.79;52.57
46291;BME280;32023;44.444;26.006;2023-02-10T07:37:20;102689.94;;;0.87;52.61
46291;BME280;32023;44.444;26.006;2023-02-10T07:48:38;102674.16;;;2.06;49.10
46291;BME280;32023;44.444;26.006;2023-02-10T07:51:07;102672.78;;;2.29;48.56
46291;BME280;32023;44.444;26.006;2023-02-10T07:53:58;102679.44;;;2.44;47.15
46291;BME280;32023;44.444;26.006;2023-02-10T07:56:32;102674.22;;;2.33;47.67
46291;BME280;32023;44.444;26.006;2023-02-10T07:58:58;102672.06;;;2.27;47.74
46291;BME280;32023;44.444;26.006;2023-02-10T08:04:18;102670.28;;;2.72;46.91
46291;BME280;32023;44.444;26.006;2023-02-10T08:06:47;102668.69;;;3.15;46.31
46291;BME280;32023;44.444;26.006;2023-02-10T08:09:13;102656.78;;;3.33;45.32
46291;BME280;32023;44.444;26.006;2023-02-10T08:11:43;102655.94;;;3.33;45.40
46291;BME280;32023;44.444;26.006;2023-02-10T08:14:18;102653.03;;;3.70;43.84
46291;BME280;32023;44.444;26.006;2023-02-10T08:19:40;102647.16;;;3.39;45.07
46291;BME280;32023;44.444;26.006;2023-02-10T08:22:18;102651.97;;;3.88;44.19
46291;BME280;32023;44.444;26.006;2023-02-10T08:28:25;102636.41;;;4.41;41.88
46291;BME280;32023;44.444;26.006;2023-02-10T08:30:51;102639.88;;;4.59;41.72
46291;BME280;32023;44.444;26.006;2023-02-10T08:33:20;102631.34;;;4.54;41.56
46291;BME280;32023;44.444;26.006;2023-02-10T08:35:52;102632.16;;;4.46;41.27
46291;BME280;32023;44.444;26.006;2023-02-10T08:38:32;102625.69;;;4.47;41.18
46291;BME280;32023;44.444;26.006;2023-02-10T08:41:04;102626.44;;;4.65;41.28
46291;BME280;32023;44.444;26.006;2023-02-10T08:43:41;102619.25;;;4.56;40.88
46291;BME280;32023;44.444;26.006;2023-02-10T08:49:43;102628.97;;;4.59;39.66
46291;BME280;32023;44.444;26.006;2023-02-10T08:52:37;102628.00;;;4.68;39.51
46291;BME280;32023;44.444;26.006;2023-02-10T08:55:33;102628.00;;;4.68;38.67
46291;BME280;32023;44.444;26.006;2023-02-10T08:57:59;102623.03;;;4.63;38.37
46291;BME280;32023;44.444;26.006;2023-02-10T09:00:28;102621.34;;;4.70;38.44
46291;BME280;32023;44.444;26.006;2023-02-10T09:02:55;102633.16;;;4.87;37.17
46291;BME280;32023;44.444;26.006;2023-02-10T09:05:23;102632.31;;;5.03;37.02
46291;BME280;32023;44.444;26.006;2023-02-10T09:07:52;102635.09;;;5.27;35.51
46291;BME280;32023;44.444;26.006;2023-02-10T09:10:21;102625.88;;;5.52;36.33
46291;BME280;32023;44.444;26.006;2023-02-10T09:12:54;102621.41;;;5.75;37.31
46291;BME280;32023;44.444;26.006;2023-02-10T09:15:23;102621.41;;;6.00;37.05
46291;BME280;32023;44.444;26.006;2023-02-10T09:18:15;102625.13;;;6.15;36.21
46291;BME280;32023;44.444;26.006;2023-02-10T09:20:41;102627.88;;;6.07;36.31
46291;BME280;32023;44.444;26.006;2023-02-10T09:23:22;102633.19;;;6.55;34.74
46291;BME280;32023;44.444;26.006;2023-02-10T09:25:55;102624.91;;;7.02;35.12
46291;BME280;32023;44.444;26.006;2023-02-10T09:28:22;102627.94;;;7.07;33.75
46291;BME280;32023;44.444;26.006;2023-02-10T09:33:19;102627.22;;;7.13;33.56
46291;BME280;32023;44.444;26.006;2023-02-10T09:35:45;102629.31;;;7.03;33.39
46291;BME280;32023;44.444;26.006;2023-02-10T09:38:12;102625.06;;;7.01;33.73
46291;BME280;32023;44.444;26.006;2023-02-10T09:43:26;102625.38;;;7.51;33.04
46291;BME280;32023;44.444;26.006;2023-02-10T09:45:58;102623.53;;;7.66;32.69
46291;BME280;32023;44.444;26.006;2023-02-10T09:53:40;102607.63;;;8.29;31.48
46291;BME280;32023;44.444;26.006;2023-02-10T09:56:07;102607.13;;;8.54;30.30
46291;BME280;32023;44.444;26.006;2023-02-10T09:58:56;102603.16;;;8.93;30.48
46291;BME280;32023;44.444;26.006;2023-02-10T10:01:23;102604.28;;;8.98;30.82
46291;BME280;32023;44.444;26.006;2023-02-10T10:04:00;102593.31;;;9.68;28.15
46291;BME280;32023;44.444;26.006;2023-02-10T10:06:35;102587.81;;;9.96;28.81
46291;BME280;32023;44.444;26.006;2023-02-10T10:11:48;102572.50;;;10.62;26.38
46291;BME280;32023;44.444;26.006;2023-02-10T10:19:26;102554.97;;;12.34;23.96
46291;BME280;32023;44.444;26.006;2023-02-10T10:27:24;102541.47;;;13.76;21.90
46291;BME280;32023;44.444;26.006;2023-02-10T10:30:07;102538.47;;;14.57;20.25
46291;BME280;32023;44.444;26.006;2023-02-10T10:35:26;102533.25;;;15.73;19.28
46291;BME280;32023;44.444;26.006;2023-02-10T10:38:00;102530.72;;;15.72;18.96
46291;BME280;32023;44.444;26.006;2023-02-10T10:40:30;102513.53;;;15.98;18.88
46291;BME280;32023;44.444;26.006;2023-02-10T10:43:02;102514.25;;;16.05;18.11
46291;BME280;32023;44.444;26.006;2023-02-10T10:45:36;102513.94;;;15.78;18.75
46291;BME280;32023;44.444;26.006;2023-02-10T10:50:41;102501.78;;;16.31;18.27
46291;BME280;32023;44.444;26.006;2023-02-10T10:59:18;102497.63;;;17.18;17.43
46291;BME280;32023;44.444;26.006;2023-02-10T11:02:19;102489.91;;;17.20;16.56
46291;BME280;32023;44.444;26.006;2023-02-10T11:05:15;102487.28;;;17.30;16.53
46291;BME280;32023;44.444;26.006;2023-02-10T11:17:01;102490.88;;;16.41;16.39
46291;BME280;32023;44.444;26.006;2023-02-10T11:23:18;102481.06;;;17.57;16.37
46291;BME280;32023;44.444;26.006;2023-02-10T11:25:37;102472.88;;;18.27;16.95
46291;BME280;32023;44.444;26.006;2023-02-10T11:28:16;102464.47;;;18.49;16.85
46291;BME280;32023;44.444;26.006;2023-02-10T11:30:45;102449.81;;;19.49;16.01
46291;BME280;32023;44.444;26.006;2023-02-10T11:33:19;102452.50;;;18.75;16.68
46291;BME280;32023;44.444;26.006;2023-02-10T11:35:57;102449.25;;;18.83;16.68
46291;BME280;32023;44.444;26.006;2023-02-10T11:38:25;102434.41;;;19.09;16.82
46291;BME280;32023;44.444;26.006;2023-02-10T11:40:56;102446.13;;;18.09;17.53
46291;BME280;32023;44.444;26.006;2023-02-10T11:43:26;102437.06;;;17.42;17.94
46291;BME280;32023;44.444;26.006;2023-02-10T11:46:00;102445.13;;;16.77;18.26
46291;BME280;32023;44.444;26.006;2023-02-10T11:48:30;102427.97;;;17.13;18.64
46291;BME280;32023;44.444;26.006;2023-02-10T11:51:04;102430.28;;;17.55;18.50
46291;BME280;32023;44.444;26.006;2023-02-10T11:53:34;102428.78;;;17.64;18.62
46291;BME280;32023;44.444;26.006;2023-02-10T12:04:02;102422.19;;;16.70;18.39
46291;BME280;32023;44.444;26.006;2023-02-10T12:09:25;102406.16;;;16.77;18.48
46291;BME280;32023;44.444;26.006;2023-02-10T12:24:15;102400.59;;;15.92;18.56
46291;BME280;32023;44.444;26.006;2023-02-10T12:27:03;102399.63;;;16.83;18.21
46291;BME280;32023;44.444;26.006;2023-02-10T12:35:18;102395.06;;;16.49;17.77
46291;BME280;32023;44.444;26.006;2023-02-10T12:37:56;102394.66;;;16.28;17.90
46291;BME280;32023;44.444;26.006;2023-02-10T12:43:21;102399.78;;;14.87;20.16
46291;BME280;32023;44.444;26.006;2023-02-10T12:46:03;102390.16;;;14.00;21.26
46291;BME280;32023;44.444;26.006;2023-02-10T12:56:37;102385.81;;;10.91;25.40
46291;BME280;32023;44.444;26.006;2023-02-10T12:59:08;102388.97;;;11.01;25.02
46291;BME280;32023;44.444;26.006;2023-02-10T13:01:37;102388.97;;;10.61;25.13
46291;BME280;32023;44.444;26.006;2023-02-10T13:07:08;102393.13;;;9.71;26.82
46291;BME280;32023;44.444;26.006;2023-02-10T13:09:41;102385.38;;;9.40;26.87
46291;BME280;32023;44.444;26.006;2023-02-10T13:14:41;102400.75;;;9.34;26.61
46291;BME280;32023;44.444;26.006;2023-02-10T13:17:09;102398.44;;;9.03;26.97
46291;BME280;32023;44.444;26.006;2023-02-10T13:19:50;102402.03;;;9.04;26.84
46291;BME280;32023;44.444;26.006;2023-02-10T13:22:41;102393.19;;;8.81;27.07
46291;BME280;32023;44.444;26.006;2023-02-10T13:28:01;102400.47;;;8.46;27.91
46291;BME280;32023;44.444;26.006;2023-02-10T13:36:07;102401.38;;;7.96;28.43
46291;BME280;32023;44.444;26.006;2023-02-10T13:38:40;102388.50;;;7.96;27.96
46291;BME280;32023;44.444;26.006;2023-02-10T13:41:15;102391.97;;;7.69;28.66
46291;BME280;32023;44.444;26.006;2023-02-10T13:44:17;102386.09;;;7.57;29.26
46291;BME280;32023;44.444;26.006;2023-02-10T13:46:45;102378.06;;;7.41;30.61
46291;BME280;32023;44.444;26.006;2023-02-10T13:49:14;102374.94;;;7.44;30.23
46291;BME280;32023;44.444;26.006;2023-02-10T13:51:58;102364.13;;;7.36;30.14
46291;BME280;32023;44.444;26.006;2023-02-10T13:56:58;102372.38;;;6.99;31.35
46291;BME280;32023;44.444;26.006;2023-02-10T13:59:43;102364.75;;;6.94;31.54
46291;BME280;32023;44.444;26.006;2023-02-10T14:02:30;102360.22;;;6.87;31.16
46291;BME280;32023;44.444;26.006;2023-02-10T14:07:44;102373.28;;;6.62;31.67
46291;BME280;32023;44.444;26.006;2023-02-10T14:21:59;102380.72;;;6.08;33.07
46291;BME280;32023;44.444;26.006;2023-02-10T14:24:48;102392.00;;;6.05;33.61
46291;BME280;32023;44.444;26.006;2023-02-10T14:36:15;102376.94;;;5.39;36.04
46291;BME280;32023;44.444;26.006;2023-02-10T14:38:55;102377.81;;;5.40;36.35
46291;BME280;32023;44.444;26.006;2023-02-10T14:44:53;102372.94;;;5.11;36.74
46291;BME280;32023;44.444;26.006;2023-02-10T15:05:51;102383.00;;;3.81;40.60
46291;BME280;32023;44.444;26.006;2023-02-10T15:08:38;102384.78;;;3.56;41.42
46291;BME280;32023;44.444;26.006;2023-02-10T15:11:27;102392.88;;;3.32;41.70
46291;BME280;32023;44.444;26.006;2023-02-10T15:17:11;102392.78;;;2.90;42.68
46291;BME280;32023;44.444;26.006;2023-02-10T15:23:09;102404.78;;;2.36;43.84
46291;BME280;32023;44.444;26.006;2023-02-10T15:26:13;102409.28;;;2.10;44.49
46291;BME280;32023;44.444;26.006;2023-02-10T15:38:24;102407.19;;;1.22;47.85
46291;BME280;32023;44.444;26.006;2023-02-10T15:40:54;102413.72;;;1.02;48.88
46291;BME280;32023;44.444;26.006;2023-02-10T15:43:35;102409.03;;;0.84;49.45
46291;BME280;32023;44.444;26.006;2023-02-10T15:49:15;102409.06;;;0.65;49.92
46291;BME280;32023;44.444;26.006;2023-02-10T15:51:43;102410.22;;;0.53;50.42
46291;BME280;32023;44.444;26.006;2023-02-10T15:54:17;102413.97;;;0.42;51.41
46291;BME280;32023;44.444;26.006;2023-02-10T15:56:55;102416.81;;;0.31;51.29
46291;BME280;32023;44.444;26.006;2023-02-10T15:59:28;102417.13;;;0.19;51.76
46291;BME280;32023;44.444;26.006;2023-02-10T16:01:58;102419.69;;;0.11;52.16
46291;BME280;32023;44.444;26.006;2023-02-10T16:07:44;102438.75;;;-0.01;52.01
46291;BME280;32023;44.444;26.006;2023-02-10T16:10:41;102435.31;;;-0.12;52.39
46291;BME280;32023;44.444;26.006;2023-02-10T16:13:16;102436.16;;;-0.21;52.69
46291;BME280;32023;44.444;26.006;2023-02-10T16:23:43;102421.81;;;-0.52;53.21
46291;BME280;32023;44.444;26.006;2023-02-10T17:05:53;102444.09;;;-1.00;56.10
46291;BME280;32023;44.444;26.006;2023-02-10T17:08:49;102444.38;;;-1.03;56.53
46291;BME280;32023;44.444;26.006;2023-02-10T17:14:05;102455.13;;;-1.12;56.36
46291;BME280;32023;44.444;26.006;2023-02-10T18:04:34;102440.56;;;-1.94;61.49
46291;BME280;32023;44.444;26.006;2023-02-10T18:07:23;102444.75;;;-2.01;62.07
46291;BME280;32023;44.444;26.006;2023-02-10T18:25:58;102455.19;;;-2.19;63.82
46291;BME280;32023;44.444;26.006;2023-02-10T19:01:52;102446.19;;;-2.51;66.07
46291;BME280;32023;44.444;26.006;2023-02-10T19:04:22;102447.31;;;-2.54;66.46
46291;BME280;32023;44.444;26.006;2023-02-10T19:06:53;102451.25;;;-2.58;66.34
46291;BME280;32023;44.444;26.006;2023-02-10T19:12:34;102437.88;;;-2.59;66.59
46291;BME280;32023;44.444;26.006;2023-02-10T20:00:09;102450.34;;;-3.14;70.01
46291;BME280;32023;44.444;26.006;2023-02-10T20:18:03;102452.00;;;-3.35;71.63
46291;BME280;32023;44.444;26.006;2023-02-10T20:30:06;102460.06;;;-3.46;72.75
46291;BME280;32023;44.444;26.006;2023-02-10T20:41:38;102463.72;;;-3.47;73.12
46291;BME280;32023;44.444;26.006;2023-02-10T20:43:40;102447.94;;;-3.52;73.41
46291;BME280;32023;44.444;26.006;2023-02-10T20:46:11;102452.72;;;-3.55;73.98
46291;BME280;32023;44.444;26.006;2023-02-10T20:55:01;102446.09;;;-3.51;73.68
46291;BME280;32023;44.444;26.006;2023-02-10T20:57:46;102449.88;;;-3.54;73.98
46291;BME280;32023;44.444;26.006;2023-02-10T21:00:14;102448.16;;;-3.55;74.27
46291;BME280;32023;44.444;26.006;2023-02-10T21:02:54;102448.91;;;-3.53;74.33